sensor_id;sensor_type;location;lat;lon;timestamp;P1;durP1;ratioP1;P2;durP2;ratioP2
22837;SDS011;11585;51.450;-0.240;2023-03-14T00:01:11;28.92;;;3.92;;
22837;SDS011;11585;51.450;-0.240;2023-03-14T00:03:41;25.67;;;3.75;;
22837;SDS011;11585;51.450;-0.240;2023-03-14T00:06:07;34.72;;;4.13;;
22837;SDS011;11585;51.450;-0.240;2023-03-14T00:08:33;28.30;;;4.10;;
22837;SDS011;11585;51.450;-0.240;2023-03-14T00:11:03;24.83;;;3.25;;
22837;SDS011;11585;51.450;-0.240;2023-03-14T00:13:40;25.67;;;3.10;;
22837;SDS011;11585;51.450;-0.240;2023-03-14T00:16:06;26.90;;;3.80;;
22837;SDS011;11585;51.450;-0.240;2023-03-14T00:18:34;25.20;;;4.78;;
22837;SDS011;11585;51.450;-0.240;2023-03-14T00:21:00;35.75;;;3.90;;
22837;SDS011;11585;51.450;-0.240;2023-03-14T00:23:27;22.02;;;3.88;;
22837;SDS011;11585;51.450;-0.240;2023-03-14T00:25:57;28.38;;;3.78;;
22837;SDS011;11585;51.450;-0.240;2023-03-14T00:28:24;18.98;;;2.97;;
22837;SDS011;11585;51.450;-0.240;2023-03-14T00:30:50;21.85;;;3.13;;
22837;SDS011;11585;51.450;-0.240;2023-03-14T00:36:37;20.58;;;3.60;;
22837;SDS011;11585;51.450;-0.240;2023-03-14T00:39:03;25.63;;;3.28;;
22837;SDS011;11585;51.450;-0.240;2023-03-14T00:41:28;26.98;;;3.90;;
22837;SDS011;11585;51.450;-0.240;2023-03-14T00:46:59;27.67;;;4.25;;
22837;SDS011;11585;51.450;-0.240;2023-03-14T00:49:25;18.20;;;3.30;;
22837;SDS011;11585;51.450;-0.240;2023-03-14T00:51:51;24.67;;;3.65;;
22837;SDS011;11585;51.450;-0.240;2023-03-14T00:57:03;16.10;;;2.90;;
22837;SDS011;11585;51.450;-0.240;2023-03-14T00:59:29;22.95;;;3.15;;
22837;SDS011;11585;51.450;-0.240;2023-03-14T01:01:54;22.80;;;3.13;;
22837;SDS011;11585;51.450;-0.240;2023-03-14T01:04:22;21.50;;;3.15;;
22837;SDS011;11585;51.450;-0.240;2023-03-14T01:06:48;14.35;;;2.63;;
22837;SDS011;11585;51.450;-0.240;2023-03-14T01:09:13;20.65;;;3.08;;
22837;SDS011;11585;51.450;-0.240;2023-03-14T01:11:39;15.75;;;2.22;;
22837;SDS011;11585;51.450;-0.240;2023-03-14T01:20:49;3.70;;;1.15;;
22837;SDS011;11585;51.450;-0.240;2023-03-14T01:26:20;1.73;;;0.80;;
22837;SDS011;11585;51.450;-0.240;2023-03-14T01:28:47;3.40;;;0.90;;
22837;SDS011;11585;51.450;-0.240;2023-03-14T01:31:14;2.28;;;0.98;;
22837;SDS011;11585;51.450;-0.240;2023-03-14T01:37:02;4.68;;;1.10;;
22837;SDS011;11585;51.450;-0.240;2023-03-14T01:39:27;1.00;;;0.80;;
22837;SDS011;11585;51.450;-0.240;2023-03-14T01:41:53;0.95;;;0.80;;
22837;SDS011;11585;51.450;-0.240;2023-03-14T01:47:13;3.28;;;0.80;;
22837;SDS011;11585;51.450;-0.240;2023-03-14T01:49:38;4.15;;;0.90;;
22837;SDS011;11585;51.450;-0.240;2023-03-14T01:52:15;4.03;;;0.95;;
22837;SDS011;11585;51.450;-0.240;2023-03-14T01:54:53;4.68;;;0.98;;
22837;SDS011;11585;51.450;-0.240;2023-03-14T01:57:31;1.00;;;0.90;;
22837;SDS011;11585;51.450;-0.240;2023-03-14T02:00:03;1.88;;;0.95;;
22837;SDS011;11585;51.450;-0.240;2023-03-14T02:02:39;4.10;;;1.10;;
22837;SDS011;11585;51.450;-0.240;2023-03-14T02:05:08;6.97;;;1.00;;
22837;SDS011;11585;51.450;-0.240;2023-03-14T02:08:09;5.60;;;1.17;;
22837;SDS011;11585;51.450;-0.240;2023-03-14T02:10:30;1.95;;;1.35;;
22837;SDS011;11585;51.450;-0.240;2023-03-14T02:12:59;2.83;;;1.10;;
22837;SDS011;11585;51.450;-0.240;2023-03-14T02:15:27;1.90;;;1.42;;
22837;SDS011;11585;51.450;-0.240;2023-03-14T02:17:53;2.53;;;1.60;;
22837;SDS011;11585;51.450;-0.240;2023-03-14T02:20:23;4.80;;;1.63;;
22837;SDS011;11585;51.450;-0.240;2023-03-14T02:22:50;3.88;;;1.67;;
22837;SDS011;11585;51.450;-0.240;2023-03-14T02:28:05;3.75;;;1.02;;
22837;SDS011;11585;51.450;-0.240;2023-03-14T02:30:32;6.35;;;1.30;;
22837;SDS011;11585;51.450;-0.240;2023-03-14T02:32:59;2.33;;;1.02;;
22837;SDS011;11585;51.450;-0.240;2023-03-14T02:35:40;4.60;;;1.15;;
22837;SDS011;11585;51.450;-0.240;2023-03-14T02:40:55;4.72;;;1.33;;
22837;SDS011;11585;51.450;-0.240;2023-03-14T02:43:21;3.80;;;1.08;;
22837;SDS011;11585;51.450;-0.240;2023-03-14T02:45:47;1.98;;;1.10;;
22837;SDS011;11585;51.450;-0.240;2023-03-14T02:48:24;1.80;;;1.02;;
22837;SDS011;11585;51.450;-0.240;2023-03-14T02:50:57;1.02;;;0.80;;
22837;SDS011;11585;51.450;-0.240;2023-03-14T02:53:28;1.60;;;1.05;;
22837;SDS011;11585;51.450;-0.240;2023-03-14T02:55:56;0.98;;;0.80;;
22837;SDS011;11585;51.450;-0.240;2023-03-14T02:58:22;4.10;;;0.80;;
22837;SDS011;11585;51.450;-0.240;2023-03-14T03:00:48;4.70;;;0.98;;
22837;SDS011;11585;51.450;-0.240;2023-03-14T03:03:16;3.50;;;1.00;;
22837;SDS011;11585;51.450;-0.240;2023-03-14T03:05:42;1.33;;;0.82;;
22837;SDS011;11585;51.450;-0.240;2023-03-14T03:08:08;3.60;;;1.00;;
22837;SDS011;11585;51.450;-0.240;2023-03-14T03:10:35;4.22;;;1.10;;
22837;SDS011;11585;51.450;-0.240;2023-03-14T03:13:01;4.55;;;0.90;;
22837;SDS011;11585;51.450;-0.240;2023-03-14T03:15:28;4.95;;;1.10;;
22837;SDS011;11585;51.450;-0.240;2023-03-14T03:17:54;2.95;;;1.13;;
22837;SDS011;11585;51.450;-0.240;2023-03-14T03:20:19;3.92;;;1.10;;
22837;SDS011;11585;51.450;-0.240;2023-03-14T03:25:30;3.83;;;1.00;;
22837;SDS011;11585;51.450;-0.240;2023-03-14T03:27:55;3.33;;;0.90;;
22837;SDS011;11585;51.450;-0.240;2023-03-14T03:30:21;0.93;;;0.80;;
22837;SDS011;11585;51.450;-0.240;2023-03-14T03:32:48;2.63;;;0.90;;
22837;SDS011;11585;51.450;-0.240;2023-03-14T03:35:14;3.03;;;0.93;;
22837;SDS011;11585;51.450;-0.240;2023-03-14T03:37:40;4.80;;;0.98;;
22837;SDS011;11585;51.450;-0.240;2023-03-14T03:40:06;3.80;;;0.90;;
22837;SDS011;11585;51.450;-0.240;2023-03-14T03:42:33;3.97;;;0.90;;
22837;SDS011;11585;51.450;-0.240;2023-03-14T03:44:59;1.00;;;0.73;;
22837;SDS011;11585;51.450;-0.240;2023-03-14T03:47:26;3.25;;;0.80;;
22837;SDS011;11585;51.450;-0.240;2023-03-14T03:49:52;4.10;;;1.20;;
22837;SDS011;11585;51.450;-0.240;2023-03-14T03:52:17;4.60;;;1.02;;
22837;SDS011;11585;51.450;-0.240;2023-03-14T03:57:28;2.42;;;0.88;;
22837;SDS011;11585;51.450;-0.240;2023-03-14T03:59:53;4.72;;;1.00;;
22837;SDS011;11585;51.450;-0.240;2023-03-14T04:02:19;4.88;;;1.15;;
22837;SDS011;11585;51.450;-0.240;2023-03-14T04:04:47;2.88;;;1.17;;
22837;SDS011;11585;51.450;-0.240;2023-03-14T04:07:12;3.83;;;0.90;;
22837;SDS011;11585;51.450;-0.240;2023-03-14T04:09:38;4.95;;;1.00;;
22837;SDS011;11585;51.450;-0.240;2023-03-14T04:12:04;4.68;;;1.33;;
22837;SDS011;11585;51.450;-0.240;2023-03-14T04:14:30;3.60;;;1.00;;
22837;SDS011;11585;51.450;-0.240;2023-03-14T04:16:56;4.47;;;1.27;;
22837;SDS011;11585;51.450;-0.240;2023-03-14T04:19:21;1.45;;;1.05;;
22837;SDS011;11585;51.450;-0.240;2023-03-14T04:21:47;3.47;;;1.05;;
22837;SDS011;11585;51.450;-0.240;2023-03-14T04:26:57;7.05;;;1.30;;
22837;SDS011;11585;51.450;-0.240;2023-03-14T04:29:23;5.45;;;1.00;;
22837;SDS011;11585;51.450;-0.240;2023-03-14T04:31:48;10.30;;;1.25;;
22837;SDS011;11585;51.450;-0.240;2023-03-14T04:36:43;4.55;;;0.93;;
22837;SDS011;11585;51.450;-0.240;2023-03-14T04:39:09;7.40;;;1.70;;
22837;SDS011;11585;51.450;-0.240;2023-03-14T04:41:35;6.53;;;1.50;;
22837;SDS011;11585;51.450;-0.240;2023-03-14T04:44:00;5.43;;;1.25;;
22837;SDS011;11585;51.450;-0.240;2023-03-14T04:46:26;10.63;;;1.50;;
22837;SDS011;11585;51.450;-0.240;2023-03-14T04:48:51;11.13;;;1.20;;
22837;SDS011;11585;51.450;-0.240;2023-03-14T04:51:17;8.32;;;1.40;;
22837;SDS011;11585;51.450;-0.240;2023-03-14T04:53:43;6.85;;;1.40;;
22837;SDS011;11585;51.450;-0.240;2023-03-14T04:56:08;5.80;;;1.48;;
22837;SDS011;11585;51.450;-0.240;2023-03-14T04:58:34;13.82;;;2.38;;
22837;SDS011;11585;51.450;-0.240;2023-03-14T05:01:03;8.23;;;1.60;;
22837;SDS011;11585;51.450;-0.240;2023-03-14T05:03:30;8.27;;;1.40;;
22837;SDS011;11585;51.450;-0.240;2023-03-14T05:05:55;7.97;;;1.30;;
22837;SDS011;11585;51.450;-0.240;2023-03-14T05:08:22;6.15;;;1.30;;
22837;SDS011;11585;51.450;-0.240;2023-03-14T05:10:52;7.70;;;1.23;;
22837;SDS011;11585;51.450;-0.240;2023-03-14T05:13:22;7.30;;;1.50;;
22837;SDS011;11585;51.450;-0.240;2023-03-14T05:15:48;8.80;;;1.35;;
22837;SDS011;11585;51.450;-0.240;2023-03-14T05:18:15;10.15;;;1.45;;
22837;SDS011;11585;51.450;-0.240;2023-03-14T05:20:41;7.10;;;1.30;;
22837;SDS011;11585;51.450;-0.240;2023-03-14T05:23:08;8.27;;;1.35;;
22837;SDS011;11585;51.450;-0.240;2023-03-14T05:25:34;10.18;;;1.38;;
22837;SDS011;11585;51.450;-0.240;2023-03-14T05:28:00;9.30;;;1.67;;
22837;SDS011;11585;51.450;-0.240;2023-03-14T05:30:25;6.10;;;1.13;;
22837;SDS011;11585;51.450;-0.240;2023-03-14T05:32:54;3.97;;;1.38;;
22837;SDS011;11585;51.450;-0.240;2023-03-14T05:35:20;3.75;;;1.00;;
22837;SDS011;11585;51.450;-0.240;2023-03-14T05:37:46;9.07;;;1.35;;
22837;SDS011;11585;51.450;-0.240;2023-03-14T05:40:11;8.65;;;1.80;;
22837;SDS011;11585;51.450;-0.240;2023-03-14T05:42:37;5.22;;;1.50;;
22837;SDS011;11585;51.450;-0.240;2023-03-14T05:45:03;5.68;;;1.42;;
22837;SDS011;11585;51.450;-0.240;2023-03-14T05:47:29;10.90;;;1.35;;
22837;SDS011;11585;51.450;-0.240;2023-03-14T05:49:54;8.68;;;1.48;;
22837;SDS011;11585;51.450;-0.240;2023-03-14T05:52:20;3.13;;;1.15;;
22837;SDS011;11585;51.450;-0.240;2023-03-14T05:54:45;9.55;;;1.95;;
22837;SDS011;11585;51.450;-0.240;2023-03-14T05:57:11;9.18;;;1.33;;
22837;SDS011;11585;51.450;-0.240;2023-03-14T05:59:36;5.80;;;1.30;;
22837;SDS011;11585;51.450;-0.240;2023-03-14T06:02:02;12.10;;;1.73;;
22837;SDS011;11585;51.450;-0.240;2023-03-14T06:04:28;12.48;;;1.75;;
22837;SDS011;11585;51.450;-0.240;2023-03-14T06:06:53;9.63;;;1.40;;
22837;SDS011;11585;51.450;-0.240;2023-03-14T06:09:19;6.03;;;1.52;;
22837;SDS011;11585;51.450;-0.240;2023-03-14T06:11:47;11.88;;;1.63;;
22837;SDS011;11585;51.450;-0.240;2023-03-14T06:14:12;16.40;;;1.65;;
22837;SDS011;11585;51.450;-0.240;2023-03-14T06:16:38;12.85;;;1.60;;
22837;SDS011;11585;51.450;-0.240;2023-03-14T06:19:04;9.98;;;1.38;;
22837;SDS011;11585;51.450;-0.240;2023-03-14T06:21:29;15.07;;;2.00;;
22837;SDS011;11585;51.450;-0.240;2023-03-14T06:23:55;14.57;;;1.77;;
22837;SDS011;11585;51.450;-0.240;2023-03-14T06:26:21;14.73;;;1.20;;
22837;SDS011;11585;51.450;-0.240;2023-03-14T06:28:48;11.43;;;1.98;;
22837;SDS011;11585;51.450;-0.240;2023-03-14T06:31:13;14.07;;;1.50;;
22837;SDS011;11585;51.450;-0.240;2023-03-14T06:33:39;15.18;;;2.03;;
22837;SDS011;11585;51.450;-0.240;2023-03-14T06:36:04;9.05;;;1.58;;
22837;SDS011;11585;51.450;-0.240;2023-03-14T06:38:30;13.30;;;1.60;;
22837;SDS011;11585;51.450;-0.240;2023-03-14T06:40:56;15.38;;;1.75;;
22837;SDS011;11585;51.450;-0.240;2023-03-14T06:43:28;12.18;;;1.20;;
22837;SDS011;11585;51.450;-0.240;2023-03-14T06:45:53;15.65;;;2.30;;
22837;SDS011;11585;51.450;-0.240;2023-03-14T06:48:19;9.77;;;1.45;;
22837;SDS011;11585;51.450;-0.240;2023-03-14T06:50:45;4.65;;;1.40;;
22837;SDS011;11585;51.450;-0.240;2023-03-14T06:53:10;10.13;;;1.38;;
22837;SDS011;11585;51.450;-0.240;2023-03-14T06:55:36;10.00;;;1.30;;
22837;SDS011;11585;51.450;-0.240;2023-03-14T06:58:01;8.55;;;1.50;;
22837;SDS011;11585;51.450;-0.240;2023-03-14T07:00:27;8.77;;;1.17;;
22837;SDS011;11585;51.450;-0.240;2023-03-14T07:05:38;7.78;;;1.75;;
22837;SDS011;11585;51.450;-0.240;2023-03-14T07:08:05;16.15;;;1.90;;
22837;SDS011;11585;51.450;-0.240;2023-03-14T07:10:31;10.45;;;1.17;;
22837;SDS011;11585;51.450;-0.240;2023-03-14T07:15:41;11.02;;;1.67;;
22837;SDS011;11585;51.450;-0.240;2023-03-14T07:18:07;6.80;;;1.33;;
22837;SDS011;11585;51.450;-0.240;2023-03-14T07:20:32;11.65;;;1.38;;
22837;SDS011;11585;51.450;-0.240;2023-03-14T07:23:00;10.65;;;1.42;;
22837;SDS011;11585;51.450;-0.240;2023-03-14T07:25:27;13.57;;;1.48;;
22837;SDS011;11585;51.450;-0.240;2023-03-14T07:27:53;4.35;;;1.50;;
22837;SDS011;11585;51.450;-0.240;2023-03-14T07:30:19;7.57;;;1.13;;
22837;SDS011;11585;51.450;-0.240;2023-03-14T07:32:44;7.97;;;1.45;;
22837;SDS011;11585;51.450;-0.240;2023-03-14T07:35:10;10.55;;;1.45;;
22837;SDS011;11585;51.450;-0.240;2023-03-14T07:37:35;3.55;;;1.27;;
22837;SDS011;11585;51.450;-0.240;2023-03-14T07:40:01;8.68;;;1.60;;
22837;SDS011;11585;51.450;-0.240;2023-03-14T07:42:30;5.78;;;1.40;;
22837;SDS011;11585;51.450;-0.240;2023-03-14T07:44:55;3.92;;;1.45;;
22837;SDS011;11585;51.450;-0.240;2023-03-14T07:47:21;2.97;;;1.13;;
22837;SDS011;11585;51.450;-0.240;2023-03-14T07:49:47;5.72;;;1.20;;
22837;SDS011;11585;51.450;-0.240;2023-03-14T07:52:12;7.63;;;1.35;;
22837;SDS011;11585;51.450;-0.240;2023-03-14T07:54:38;8.02;;;1.40;;
22837;SDS011;11585;51.450;-0.240;2023-03-14T07:57:03;3.08;;;1.15;;
22837;SDS011;11585;51.450;-0.240;2023-03-14T07:59:29;8.32;;;1.40;;
22837;SDS011;11585;51.450;-0.240;2023-03-14T08:01:55;2.75;;;1.05;;
22837;SDS011;11585;51.450;-0.240;2023-03-14T08:04:20;2.50;;;1.15;;
22837;SDS011;11585;51.450;-0.240;2023-03-14T08:06:46;3.50;;;2.30;;
22837;SDS011;11585;51.450;-0.240;2023-03-14T08:09:11;5.55;;;1.10;;
22837;SDS011;11585;51.450;-0.240;2023-03-14T08:11:37;4.70;;;1.60;;
22837;SDS011;11585;51.450;-0.240;2023-03-14T08:14:03;3.42;;;1.00;;
22837;SDS011;11585;51.450;-0.240;2023-03-14T08:16:28;3.90;;;1.35;;
22837;SDS011;11585;51.450;-0.240;2023-03-14T08:18:54;3.63;;;1.25;;
22837;SDS011;11585;51.450;-0.240;2023-03-14T08:21:21;6.60;;;1.38;;
22837;SDS011;11585;51.450;-0.240;2023-03-14T08:23:46;4.88;;;1.10;;
22837;SDS011;11585;51.450;-0.240;2023-03-14T08:26:12;4.07;;;1.15;;
22837;SDS011;11585;51.450;-0.240;2023-03-14T08:28:37;1.58;;;1.05;;
22837;SDS011;11585;51.450;-0.240;2023-03-14T08:31:03;4.70;;;1.20;;
22837;SDS011;11585;51.450;-0.240;2023-03-14T08:36:17;6.35;;;1.30;;
22837;SDS011;11585;51.450;-0.240;2023-03-14T08:38:43;5.93;;;1.40;;
22837;SDS011;11585;51.450;-0.240;2023-03-14T08:41:09;3.03;;;1.40;;
22837;SDS011;11585;51.450;-0.240;2023-03-14T08:46:04;3.72;;;1.70;;
22837;SDS011;11585;51.450;-0.240;2023-03-14T08:48:30;5.53;;;1.60;;
22837;SDS011;11585;51.450;-0.240;2023-03-14T08:51:06;3.90;;;1.33;;
22837;SDS011;11585;51.450;-0.240;2023-03-14T08:53:36;8.43;;;1.85;;
22837;SDS011;11585;51.450;-0.240;2023-03-14T08:56:04;4.22;;;1.65;;
22837;SDS011;11585;51.450;-0.240;2023-03-14T08:58:31;4.35;;;1.50;;
22837;SDS011;11585;51.450;-0.240;2023-03-14T09:00:58;4.60;;;1.50;;
22837;SDS011;11585;51.450;-0.240;2023-03-14T09:06:46;1.33;;;1.15;;
22837;SDS011;11585;51.450;-0.240;2023-03-14T09:09:12;1.48;;;1.17;;
22837;SDS011;11585;51.450;-0.240;2023-03-14T09:11:39;0.82;;;0.82;;
22837;SDS011;11585;51.450;-0.240;2023-03-14T09:17:09;1.17;;;1.00;;
22837;SDS011;11585;51.450;-0.240;2023-03-14T09:19:35;2.78;;;0.90;;
22837;SDS011;11585;51.450;-0.240;2023-03-14T09:22:01;3.47;;;1.00;;
22837;SDS011;11585;51.450;-0.240;2023-03-14T09:24:28;2.35;;;0.75;;
22837;SDS011;11585;51.450;-0.240;2023-03-14T09:26:56;3.72;;;0.90;;
22837;SDS011;11585;51.450;-0.240;2023-03-14T09:29:22;2.15;;;1.10;;
22837;SDS011;11585;51.450;-0.240;2023-03-14T09:31:50;4.97;;;1.05;;
22837;SDS011;11585;51.450;-0.240;2023-03-14T09:34:19;3.25;;;1.33;;
22837;SDS011;11585;51.450;-0.240;2023-03-14T09:36:45;5.10;;;1.50;;
22837;SDS011;11585;51.450;-0.240;2023-03-14T09:39:11;5.55;;;1.55;;
22837;SDS011;11585;51.450;-0.240;2023-03-14T09:41:37;7.90;;;2.08;;
22837;SDS011;11585;51.450;-0.240;2023-03-14T09:47:30;4.85;;;1.55;;
22837;SDS011;11585;51.450;-0.240;2023-03-14T09:59:49;7.78;;;1.90;;
22837;SDS011;11585;51.450;-0.240;2023-03-14T10:02:21;4.60;;;1.75;;
22837;SDS011;11585;51.450;-0.240;2023-03-14T10:04:52;6.68;;;1.90;;
22837;SDS011;11585;51.450;-0.240;2023-03-14T10:07:28;10.25;;;2.15;;
22837;SDS011;11585;51.450;-0.240;2023-03-14T10:09:56;8.23;;;1.90;;
22837;SDS011;11585;51.450;-0.240;2023-03-14T10:15:50;7.40;;;1.77;;
22837;SDS011;11585;51.450;-0.240;2023-03-14T10:18:31;5.50;;;1.85;;
22837;SDS011;11585;51.450;-0.240;2023-03-14T10:21:19;5.53;;;1.98;;
22837;SDS011;11585;51.450;-0.240;2023-03-14T10:23:52;13.80;;;2.13;;
22837;SDS011;11585;51.450;-0.240;2023-03-14T10:26:23;6.15;;;1.80;;
22837;SDS011;11585;51.450;-0.240;2023-03-14T10:28:52;3.75;;;1.27;;
22837;SDS011;11585;51.450;-0.240;2023-03-14T10:31:26;7.63;;;1.70;;
22837;SDS011;11585;51.450;-0.240;2023-03-14T10:33:59;3.40;;;1.70;;
22837;SDS011;11585;51.450;-0.240;2023-03-14T10:36:29;7.60;;;1.83;;
22837;SDS011;11585;51.450;-0.240;2023-03-14T10:41:50;5.72;;;2.30;;
22837;SDS011;11585;51.450;-0.240;2023-03-14T10:44:24;10.30;;;2.10;;
22837;SDS011;11585;51.450;-0.240;2023-03-14T10:46:58;5.40;;;1.40;;
22837;SDS011;11585;51.450;-0.240;2023-03-14T10:49:30;5.28;;;1.98;;
22837;SDS011;11585;51.450;-0.240;2023-03-14T10:52:40;5.38;;;1.38;;
22837;SDS011;11585;51.450;-0.240;2023-03-14T10:54:49;6.50;;;2.30;;
22837;SDS011;11585;51.450;-0.240;2023-03-14T10:57:21;7.03;;;1.90;;
22837;SDS011;11585;51.450;-0.240;2023-03-14T10:59:47;12.02;;;3.20;;
22837;SDS011;11585;51.450;-0.240;2023-03-14T11:07:46;13.70;;;2.30;;
22837;SDS011;11585;51.450;-0.240;2023-03-14T11:10:26;9.38;;;2.70;;
22837;SDS011;11585;51.450;-0.240;2023-03-14T11:27:00;16.33;;;3.83;;
22837;SDS011;11585;51.450;-0.240;2023-03-14T11:29:40;13.00;;;3.90;;
22837;SDS011;11585;51.450;-0.240;2023-03-14T11:32:13;17.13;;;3.63;;
22837;SDS011;11585;51.450;-0.240;2023-03-14T11:34:53;6.38;;;2.20;;
22837;SDS011;11585;51.450;-0.240;2023-03-14T11:42:43;10.88;;;2.13;;
22837;SDS011;11585;51.450;-0.240;2023-03-14T11:45:14;8.27;;;2.05;;
22837;SDS011;11585;51.450;-0.240;2023-03-14T11:47:43;24.05;;;4.75;;
22837;SDS011;11585;51.450;-0.240;2023-03-14T11:50:16;17.50;;;3.07;;
22837;SDS011;11585;51.450;-0.240;2023-03-14T11:52:48;17.80;;;4.15;;
22837;SDS011;11585;51.450;-0.240;2023-03-14T11:55:20;18.13;;;2.78;;
22837;SDS011;11585;51.450;-0.240;2023-03-14T11:57:55;11.15;;;3.05;;
22837;SDS011;11585;51.450;-0.240;2023-03-14T12:00:25;12.45;;;2.58;;
22837;SDS011;11585;51.450;-0.240;2023-03-14T12:05:58;13.45;;;2.60;;
22837;SDS011;11585;51.450;-0.240;2023-03-14T12:08:39;13.32;;;3.67;;
22837;SDS011;11585;51.450;-0.240;2023-03-14T12:11:11;11.25;;;2.47;;
22837;SDS011;11585;51.450;-0.240;2023-03-14T12:13:53;15.65;;;2.40;;
22837;SDS011;11585;51.450;-0.240;2023-03-14T12:16:25;14.30;;;3.25;;
22837;SDS011;11585;51.450;-0.240;2023-03-14T12:18:57;11.82;;;2.63;;
22837;SDS011;11585;51.450;-0.240;2023-03-14T12:22:00;13.57;;;2.33;;
22837;SDS011;11585;51.450;-0.240;2023-03-14T12:24:48;13.57;;;2.17;;
22837;SDS011;11585;51.450;-0.240;2023-03-14T12:30:25;7.07;;;1.80;;
22837;SDS011;11585;51.450;-0.240;2023-03-14T12:35:41;22.35;;;5.15;;
22837;SDS011;11585;51.450;-0.240;2023-03-14T12:40:54;14.65;;;4.60;;
22837;SDS011;11585;51.450;-0.240;2023-03-14T12:43:28;7.95;;;1.92;;
22837;SDS011;11585;51.450;-0.240;2023-03-14T12:48:46;10.63;;;1.58;;
22837;SDS011;11585;51.450;-0.240;2023-03-14T12:51:15;15.18;;;3.42;;
22837;SDS011;11585;51.450;-0.240;2023-03-14T12:56:20;14.07;;;2.97;;
22837;SDS011;11585;51.450;-0.240;2023-03-14T13:01:54;50.17;;;9.90;;
22837;SDS011;11585;51.450;-0.240;2023-03-14T13:04:31;20.25;;;4.75;;
22837;SDS011;11585;51.450;-0.240;2023-03-14T13:07:02;21.05;;;4.00;;
22837;SDS011;11585;51.450;-0.240;2023-03-14T13:11:54;8.85;;;1.95;;
22837;SDS011;11585;51.450;-0.240;2023-03-14T13:14:21;8.77;;;2.10;;
22837;SDS011;11585;51.450;-0.240;2023-03-14T13:16:48;8.35;;;2.33;;
22837;SDS011;11585;51.450;-0.240;2023-03-14T13:19:17;25.02;;;6.22;;
22837;SDS011;11585;51.450;-0.240;2023-03-14T13:21:46;26.20;;;5.82;;
22837;SDS011;11585;51.450;-0.240;2023-03-14T13:24:24;16.85;;;4.15;;
22837;SDS011;11585;51.450;-0.240;2023-03-14T13:26:54;6.57;;;2.25;;
22837;SDS011;11585;51.450;-0.240;2023-03-14T13:29:24;11.82;;;3.33;;
22837;SDS011;11585;51.450;-0.240;2023-03-14T13:31:53;9.65;;;2.10;;
22837;SDS011;11585;51.450;-0.240;2023-03-14T13:34:24;11.45;;;3.97;;
22837;SDS011;11585;51.450;-0.240;2023-03-14T13:36:54;6.55;;;2.50;;
22837;SDS011;11585;51.450;-0.240;2023-03-14T13:39:21;11.70;;;2.20;;
22837;SDS011;11585;51.450;-0.240;2023-03-14T13:41:50;5.82;;;1.63;;
22837;SDS011;11585;51.450;-0.240;2023-03-14T13:44:21;7.40;;;2.28;;
22837;SDS011;11585;51.450;-0.240;2023-03-14T13:47:03;9.93;;;1.95;;
22837;SDS011;11585;51.450;-0.240;2023-03-14T13:49:30;3.85;;;1.45;;
22837;SDS011;11585;51.450;-0.240;2023-03-14T13:52:00;11.50;;;2.55;;
22837;SDS011;11585;51.450;-0.240;2023-03-14T13:57:12;7.57;;;1.85;;
22837;SDS011;11585;51.450;-0.240;2023-03-14T13:59:38;6.40;;;1.98;;
22837;SDS011;11585;51.450;-0.240;2023-03-14T14:02:04;5.15;;;2.47;;
22837;SDS011;11585;51.450;-0.240;2023-03-14T14:04:40;2.80;;;1.00;;
22837;SDS011;11585;51.450;-0.240;2023-03-14T14:07:16;3.63;;;1.50;;
22837;SDS011;11585;51.450;-0.240;2023-03-14T14:09:44;6.32;;;1.30;;
22837;SDS011;11585;51.450;-0.240;2023-03-14T14:12:14;14.80;;;3.35;;
22837;SDS011;11585;51.450;-0.240;2023-03-14T14:14:43;7.57;;;2.58;;
22837;SDS011;11585;51.450;-0.240;2023-03-14T14:17:14;4.30;;;1.52;;
22837;SDS011;11585;51.450;-0.240;2023-03-14T14:20:02;6.38;;;2.15;;
22837;SDS011;11585;51.450;-0.240;2023-03-14T14:25:20;5.90;;;1.80;;
22837;SDS011;11585;51.450;-0.240;2023-03-14T14:31:00;6.97;;;1.55;;
22837;SDS011;11585;51.450;-0.240;2023-03-14T14:33:29;20.55;;;5.95;;
22837;SDS011;11585;51.450;-0.240;2023-03-14T14:36:19;6.32;;;2.70;;
22837;SDS011;11585;51.450;-0.240;2023-03-14T14:39:04;6.70;;;1.67;;
22837;SDS011;11585;51.450;-0.240;2023-03-14T14:41:39;9.77;;;2.72;;
22837;SDS011;11585;51.450;-0.240;2023-03-14T14:44:10;8.02;;;2.55;;
22837;SDS011;11585;51.450;-0.240;2023-03-14T14:46:41;8.98;;;2.92;;
22837;SDS011;11585;51.450;-0.240;2023-03-14T14:49:12;10.52;;;2.97;;
22837;SDS011;11585;51.450;-0.240;2023-03-14T14:51:43;14.88;;;3.25;;
22837;SDS011;11585;51.450;-0.240;2023-03-14T14:54:17;20.42;;;6.03;;
22837;SDS011;11585;51.450;-0.240;2023-03-14T14:56:45;15.75;;;4.75;;
22837;SDS011;11585;51.450;-0.240;2023-03-14T14:59:27;6.78;;;2.20;;
22837;SDS011;11585;51.450;-0.240;2023-03-14T15:01:59;28.27;;;7.43;;
22837;SDS011;11585;51.450;-0.240;2023-03-14T15:04:29;14.15;;;3.65;;
22837;SDS011;11585;51.450;-0.240;2023-03-14T15:06:56;5.28;;;1.90;;
22837;SDS011;11585;51.450;-0.240;2023-03-14T15:09:21;28.27;;;8.27;;
22837;SDS011;11585;51.450;-0.240;2023-03-14T15:11:47;9.90;;;3.40;;
22837;SDS011;11585;51.450;-0.240;2023-03-14T15:14:14;10.25;;;2.38;;
22837;SDS011;11585;51.450;-0.240;2023-03-14T15:16:40;12.57;;;2.55;;
22837;SDS011;11585;51.450;-0.240;2023-03-14T15:19:19;17.90;;;4.30;;
22837;SDS011;11585;51.450;-0.240;2023-03-14T15:21:46;7.63;;;2.72;;
22837;SDS011;11585;51.450;-0.240;2023-03-14T15:24:11;14.48;;;4.65;;
22837;SDS011;11585;51.450;-0.240;2023-03-14T15:26:37;10.35;;;2.92;;
22837;SDS011;11585;51.450;-0.240;2023-03-14T15:29:03;13.32;;;1.98;;
22837;SDS011;11585;51.450;-0.240;2023-03-14T15:31:32;6.72;;;1.73;;
22837;SDS011;11585;51.450;-0.240;2023-03-14T15:36:43;3.97;;;1.48;;
22837;SDS011;11585;51.450;-0.240;2023-03-14T15:39:09;6.57;;;1.58;;
22837;SDS011;11585;51.450;-0.240;2023-03-14T15:41:35;7.40;;;2.08;;
22837;SDS011;11585;51.450;-0.240;2023-03-14T15:46:46;5.40;;;1.70;;
22837;SDS011;11585;51.450;-0.240;2023-03-14T15:49:12;10.27;;;2.63;;
22837;SDS011;11585;51.450;-0.240;2023-03-14T15:51:38;5.88;;;1.30;;
22837;SDS011;11585;51.450;-0.240;2023-03-14T15:56:48;12.63;;;2.55;;
22837;SDS011;11585;51.450;-0.240;2023-03-14T15:59:13;24.98;;;6.15;;
22837;SDS011;11585;51.450;-0.240;2023-03-14T16:01:39;5.65;;;1.92;;
22837;SDS011;11585;51.450;-0.240;2023-03-14T16:04:07;6.53;;;1.85;;
22837;SDS011;11585;51.450;-0.240;2023-03-14T16:06:32;2.22;;;0.90;;
22837;SDS011;11585;51.450;-0.240;2023-03-14T16:09:00;6.53;;;2.25;;
22837;SDS011;11585;51.450;-0.240;2023-03-14T16:11:25;7.72;;;1.30;;
22837;SDS011;11585;51.450;-0.240;2023-03-14T16:13:51;4.38;;;1.48;;
22837;SDS011;11585;51.450;-0.240;2023-03-14T16:16:17;7.40;;;2.10;;
22837;SDS011;11585;51.450;-0.240;2023-03-14T16:18:43;7.95;;;2.08;;
22837;SDS011;11585;51.450;-0.240;2023-03-14T16:21:12;4.78;;;1.52;;
22837;SDS011;11585;51.450;-0.240;2023-03-14T16:23:42;6.60;;;2.20;;
22837;SDS011;11585;51.450;-0.240;2023-03-14T16:26:10;4.68;;;1.75;;
22837;SDS011;11585;51.450;-0.240;2023-03-14T16:28:37;3.63;;;1.55;;
22837;SDS011;11585;51.450;-0.240;2023-03-14T16:31:04;3.88;;;1.10;;
22837;SDS011;11585;51.450;-0.240;2023-03-14T16:36:15;3.35;;;1.02;;
22837;SDS011;11585;51.450;-0.240;2023-03-14T16:38:41;6.32;;;1.25;;
22837;SDS011;11585;51.450;-0.240;2023-03-14T16:41:12;6.00;;;1.38;;
22837;SDS011;11585;51.450;-0.240;2023-03-14T16:43:42;2.97;;;1.10;;
22837;SDS011;11585;51.450;-0.240;2023-03-14T16:46:14;5.00;;;1.45;;
22837;SDS011;11585;51.450;-0.240;2023-03-14T16:48:41;7.60;;;1.33;;
22837;SDS011;11585;51.450;-0.240;2023-03-14T16:51:07;5.78;;;1.30;;
22837;SDS011;11585;51.450;-0.240;2023-03-14T16:56:18;6.15;;;1.67;;
22837;SDS011;11585;51.450;-0.240;2023-03-14T16:58:43;20.33;;;5.28;;
22837;SDS011;11585;51.450;-0.240;2023-03-14T17:01:10;4.13;;;1.40;;
22837;SDS011;11585;51.450;-0.240;2023-03-14T17:03:43;21.00;;;6.15;;
22837;SDS011;11585;51.450;-0.240;2023-03-14T17:06:16;10.90;;;2.60;;